Latest Weather Observations for Strahan

IDT60801

Issued at 1:21 pm EDT Monday 26 October 2020 (issued every 10 minutes, with the page automatically refreshed every 10 minutes)

About weather observations | Map of weather stations | Latest weather observations for TAS | Other Formats
Station Details ID: 097072 Name: STRAHAN AERODROME Lat: -42.16 Lon: 145.29 Height: 21.0 m
Data from the previous 72 hours. | See also: Recent months at Strahan
Date/Time
EDT
Temp
°C
App
Temp
°C
Dew
Point
°C
Rel
Hum
%
Delta-T
°C
Wind Press
QNH
hPa
Press
MSL
hPa
Rain since
9am
mm
Dir  Spd
km/h
Gust
km/h
Spd
kts
Gust
kts
26/01:00pm 16.3 10.7 3.4 42 5.9 SSE 22 30 12 16 1029.9 1029.9 0.0
26/12:30pm 15.5 9.5 3.3 44 5.6 SSE 24 32 13 17 1030.4 1030.4 0.0
26/12:00pm 14.3 8.3 3.5 48 4.8 S 24 35 13 19 1030.8 1030.8 0.0
26/11:30am 13.6 7.7 3.9 52 4.4 SSE 24 35 13 19 1031.1 1031.1 0.0
26/11:00am 12.8 7.3 4.0 55 3.9 S 22 30 12 16 1031.4 1031.4 0.0
26/10:30am 13.1 9.0 4.5 56 3.9 SE 15 24 8 13 1031.4 1031.4 0.0
26/10:00am 12.6 8.9 4.3 57 3.7 SE 13 17 7 9 1031.5 1031.5 0.0
26/09:30am 11.0 6.8 4.0 62 3.1 SSE 15 20 8 11 1031.6 1031.6 0.0
26/09:00am 10.8 7.0 4.0 63 3.0 SSE 13 17 7 9 1031.5 1031.5 0.0
26/08:30am 9.6 6.0 5.2 74 2.0 SE 13 17 7 9 1031.4 1031.4 0.0
26/08:00am 7.7 5.7 6.3 91 0.6 SE 6 9 3 5 1031.3 1031.3 0.0
26/07:30am 5.7 4.6 5.3 97 0.2 CALM 0 0 0 0 1031.3 1031.3 0.0
26/07:00am 2.5 0.4 1.9 96 0.2 NE 2 6 1 3 1031.2 1031.2 0.0
26/06:30am 1.9 -1.2 1.3 96 0.2 NE 7 9 4 5 1031.0 1031.0 0.0
26/06:00am 1.5 -1.5 0.9 96 0.2 NE 6 7 3 4 1030.8 1030.8 0.0
26/05:30am 2.8 -0.2 2.2 96 0.2 ENE 7 7 4 4 1030.6 1030.6 0.0
26/05:00am 1.5 -1.1 0.9 96 0.2 ENE 4 7 2 4 1030.6 1030.6 0.0
26/04:30am 1.9 -1.0 1.3 96 0.2 ENE 6 9 3 5 1030.5 1030.5 0.0
26/04:00am 3.2 0.3 2.6 96 0.2 E 7 9 4 5 1030.3 1030.3 0.0
26/03:30am 3.7 1.8 3.1 96 0.2 N 2 7 1 4 1030.2 1030.2 0.0
26/03:00am 3.4 1.7 1.9 90 0.6 CALM 0 7 0 4 1030.1 1030.1 0.0
26/02:30am 4.8 2.0 3.0 88 0.7 ESE 7 9 4 5 1030.1 1030.1 0.0
26/02:00am 5.1 2.3 3.0 86 0.9 SE 7 13 4 7 1030.1 1030.1 0.0
26/01:30am 6.3 2.5 3.8 84 1.1 SSE 13 17 7 9 1030.1 1030.1 0.0
26/01:00am 6.0 1.4 3.7 85 1.0 SE 17 20 9 11 1030.2 1030.2 0.0
26/12:30am 6.1 1.4 3.4 83 1.1 SE 17 20 9 11 1030.1 1030.1 0.0
26/12:00am 6.7 1.5 3.3 79 1.4 SE 20 26 11 14 1030.1 1030.1 0.0
 
Date/Time
EDT
Temp
°C
App
Temp
°C
Dew
Point
°C
Rel
Hum
%
Delta-T
°C
Wind Press
QNH
hPa
Press
MSL
hPa
Rain since
9am
mm
Dir  Spd
km/h
Gust
km/h
Spd
kts
Gust
kts
25/11:30pm 6.8 2.1 3.2 78 1.5 SE 17 22 9 12 1030.1 1030.1 0.0
25/11:00pm 7.4 2.4 3.6 77 1.6 ESE 19 24 10 13 1030.0 1030.0 0.0
25/10:30pm 8.2 2.7 4.2 76 1.7 SE 22 28 12 15 1029.9 1029.9 0.0
25/10:00pm 8.4 4.3 4.6 77 1.7 SE 15 26 8 14 1029.7 1029.7 0.0
25/09:30pm 9.2 3.0 4.4 72 2.1 SSE 26 35 14 19 1029.3 1029.3 0.0
25/09:00pm 9.3 3.0 3.9 69 2.3 SSE 26 35 14 19 1028.9 1028.9 0.0
25/08:30pm 9.7 3.8 3.9 67 2.5 S 24 41 13 22 1028.5 1028.5 0.0
25/08:00pm 9.6 4.6 4.4 70 2.3 S 20 32 11 17 1028.1 1028.1 0.0
25/07:30pm 10.2 4.3 4.1 66 2.7 S 24 35 13 19 1027.6 1027.6 0.0
25/07:00pm 11.0 4.4 4.2 63 3.0 S 28 39 15 21 1027.2 1027.2 0.0
25/06:30pm 11.7 4.2 3.7 58 3.6 S 32 43 17 23 1026.9 1026.9 0.0
25/06:00pm 12.3 5.3 4.3 58 3.6 SSW 30 41 16 22 1026.7 1026.7 0.0
25/05:30pm 12.9 5.9 4.3 56 3.9 S 30 43 16 23 1026.4 1026.4 0.0
25/05:00pm 13.7 7.1 4.3 53 4.3 S 28 39 15 21 1026.3 1026.3 0.0
25/04:30pm 13.8 7.1 3.9 51 4.5 S 28 41 15 22 1026.2 1026.2 0.0
25/04:00pm 14.4 8.7 5.0 53 4.4 S 24 35 13 19 1026.3 1026.3 0.0
25/03:30pm 13.9 7.8 2.8 47 4.9 S 24 37 13 20 1026.2 1026.2 0.0
25/03:00pm 12.6 6.3 1.6 47 4.7 SSE 24 32 13 17 1026.3 1026.3 0.0
25/02:30pm 13.8 8.4 2.7 47 4.9 SSE 20 32 11 17 1026.3 1026.3 0.0
25/02:00pm 12.8 6.5 1.8 47 4.7 S 24 32 13 17 1026.2 1026.2 0.0
25/01:30pm 12.6 6.5 2.5 50 4.4 S 24 33 13 18 1026.0 1026.0 0.0
25/01:00pm 12.2 6.4 2.1 50 4.3 S 22 32 12 17 1026.0 1026.0 0.0
25/12:30pm 11.9 5.3 2.1 51 4.2 SSE 26 39 14 21 1026.2 1026.2 0.0
25/12:00pm 12.0 5.8 2.2 51 4.2 SSE 24 37 13 20 1026.1 1026.1 0.0
25/11:30am 12.2 5.3 2.6 52 4.2 SE 28 41 15 22 1025.9 1025.9 0.0
25/11:00am 11.7 6.1 3.5 57 3.6 SSE 22 35 12 19 1025.7 1025.7 0.0
25/10:30am 11.6 4.8 2.9 55 3.8 SE 28 39 15 21 1025.4 1025.4 0.0
25/10:00am 9.7 3.1 2.1 59 3.2 SE 26 33 14 18 1025.3 1025.3 0.0
25/09:30am 9.3 4.1 3.5 67 2.5 SSE 20 28 11 15 1025.0 1025.0 0.0
25/09:00am 9.1 4.4 3.1 66 2.6 SSE 17 26 9 14 1024.4 1024.4 1.6
25/08:30am 8.6 4.4 3.6 71 2.2 SE 15 20 8 11 1023.9 1023.9 1.6
25/08:00am 7.3 2.2 3.2 75 1.7 SE 19 24 10 13 1023.4 1023.4 1.6
25/07:30am 6.4 1.6 2.7 77 1.5 ESE 17 26 9 14 1022.6 1022.6 1.6
25/07:00am 4.6 1.0 3.1 90 0.6 SE 11 17 6 9 1022.2 1022.2 1.6
25/06:30am 4.2 0.5 2.6 89 0.6 SSE 11 13 6 7 1021.4 1021.4 1.6
25/06:00am 3.5 -0.7 1.9 89 0.6 ESE 13 15 7 8 1020.5 1020.5 1.6
25/05:30am 4.0 -0.3 3.0 93 0.4 SSE 15 19 8 10 1020.4 1020.4 1.6
25/05:00am 2.9 -1.2 2.0 94 0.4 SE 13 20 7 11 1019.6 1019.6 1.6
25/04:30am 2.6 -0.4 1.1 90 0.6 E 6 13 3 7 1019.1 1019.1 1.6
25/04:00am 2.8 -1.5 1.3 90 0.6 SE 13 15 7 8 1018.8 1018.8 1.6
25/03:30am 3.4 -1.1 1.9 90 0.6 SE 15 20 8 11 1018.4 1018.4 1.6
25/03:00am 3.4 -1.2 1.8 89 0.6 ESE 15 17 8 9 1017.9 1017.9 1.6
25/02:30am 4.8 -0.6 2.5 85 0.9 SE 20 26 11 14 1017.5 1017.5 1.6
25/02:00am 3.9 -0.7 1.8 86 0.8 ESE 15 19 8 10 1017.1 1017.1 1.6
25/01:30am 4.1 -0.8 2.0 86 0.8 ESE 17 26 9 14 1017.0 1017.0 1.6
25/01:00am 5.0 0.5 2.0 81 1.2 SSE 15 24 8 13 1016.5 1016.5 1.6
25/12:30am 5.4 0.9 2.2 80 1.3 ESE 15 22 8 12 1016.0 1016.0 1.6
25/12:00am 6.5 0.8 2.8 77 1.5 SE 22 32 12 17 1015.7 1015.7 1.6
 
Date/Time
EDT
Temp
°C
App
Temp
°C
Dew
Point
°C
Rel
Hum
%
Delta-T
°C
Wind Press
QNH
hPa
Press
MSL
hPa
Rain since
9am
mm
Dir  Spd
km/h
Gust
km/h
Spd
kts
Gust
kts
24/11:30pm 6.9 -0.1 2.0 71 2.0 SSE 28 43 15 23 1015.4 1015.5 1.6
24/11:29pm 6.9 -0.1 2.0 71 2.0 SSE 28 43 15 23 1015.3 1015.4 1.6
24/11:00pm 6.8 1.9 1.9 71 2.0 S 17 24 9 13 1014.9 1015.0 1.6
24/10:30pm 7.0 1.5 1.7 69 2.2 S 20 32 11 17 1014.5 1014.6 1.6
24/10:00pm 6.4 0.6 2.1 74 1.7 S 22 33 12 18 1014.3 1014.4 1.6
24/09:30pm 6.6 -0.1 3.4 80 1.3 S 28 41 15 22 1013.6 1013.7 1.6
24/09:00pm 6.8 -1.4 5.0 88 0.8 SSW 37 50 20 27 1012.8 1012.9 1.6
24/08:50pm 7.7 0.3 4.1 78 1.6 SSW 32 54 17 29 1012.6 1012.7 1.2
24/08:30pm 7.9 1.6 3.6 74 1.8 SSW 26 35 14 19 1011.8 1011.9 1.2
24/08:00pm 8.0 2.5 4.0 76 1.7 SSW 22 33 12 18 1011.2 1011.3 1.2
24/07:30pm 8.2 3.1 6.0 86 1.0 SSW 22 37 12 20 1010.4 1010.4 1.2
24/07:00pm 8.3 1.9 5.4 82 1.3 SSW 28 41 15 22 1009.8 1009.8 1.2
24/06:30pm 9.0 3.7 8.4 96 0.3 S 26 37 14 20 1009.3 1009.3 1.2
24/06:00pm 8.4 4.3 7.8 96 0.3 SSW 19 35 10 19 1008.8 1008.8 1.0
24/05:30pm 9.5 4.4 7.8 89 0.8 SW 24 33 13 18 1008.3 1008.3 0.8
24/05:00pm 9.1 6.5 7.9 92 0.6 SW 11 19 6 10 1007.9 1007.9 0.8
24/04:48pm 8.2 2.2 7.0 92 0.6 WSW 28 46 15 25 1008.1 1008.1 0.6
24/04:47pm 8.3 1.9 6.9 91 0.7 WSW 30 46 16 25 1008.0 1008.0 0.6
24/04:30pm 10.2 3.4 5.0 70 2.4 WSW 30 52 16 28 1007.7 1007.7 0.0
24/04:28pm 10.7 4.2 4.8 67 2.7 WSW 28 52 15 28 1007.7 1007.7 0.0
24/04:00pm 12.4 6.9 5.8 64 3.1 WSW 24 32 13 17 1007.4 1007.4 0.0
24/03:30pm 10.4 4.6 8.0 85 1.2 SW 28 41 15 22 1007.5 1007.5 0.0
24/03:00pm 12.9 7.0 4.1 55 4.0 W 24 32 13 17 1007.3 1007.3 0.0
24/02:30pm 13.7 7.1 4.0 52 4.4 W 28 39 15 21 1007.4 1007.4 0.0
24/02:00pm 13.1 7.1 3.2 51 4.4 WSW 24 33 13 18 1007.1 1007.1 0.0
24/01:30pm 13.3 6.6 3.4 51 4.4 WSW 28 35 15 19 1006.9 1006.9 0.0
24/01:00pm 13.0 7.5 5.7 61 3.4 SW 24 39 13 21 1006.7 1006.7 0.0
24/12:30pm 10.9 3.7 5.0 67 2.7 SW 32 44 17 24 1006.8 1006.8 0.0
24/12:00pm 13.1 6.8 4.0 54 4.1 WSW 26 35 14 19 1006.5 1006.5 0.0
24/11:30am 12.8 5.8 4.0 55 4.0 SW 30 39 16 21 1006.3 1006.3 0.0
24/11:00am 13.1 6.7 5.3 59 3.6 SW 28 39 15 21 1006.1 1006.1 0.0
24/10:30am 11.9 5.9 5.1 63 3.1 WSW 26 33 14 18 1006.0 1006.0 0.0
24/10:00am 11.3 5.7 5.6 68 2.6 SW 24 33 13 18 1005.9 1005.9 0.0
24/09:30am 10.8 5.3 6.0 72 2.2 SW 24 35 13 19 1005.9 1005.9 0.0
24/09:00am 9.9 5.6 9.3 96 0.3 SW 22 28 12 15 1005.7 1005.7 0.0
24/08:30am 11.2 8.0 8.6 84 1.3 SSW 15 20 8 11 1005.4 1005.4 0.0
24/08:00am 10.4 6.0 7.6 83 1.3 SW 20 28 11 15 1005.2 1005.2 0.0
24/07:30am 10.0 6.7 9.4 96 0.3 SW 17 24 9 13 1005.0 1005.0 0.0
24/07:00am 9.3 7.7 8.7 96 0.3 S 7 11 4 6 1004.6 1004.6 0.0
24/06:30am 8.1 6.4 7.5 96 0.3 SSW 6 11 3 6 1004.6 1004.6 0.0
24/06:00am 8.1 7.5 7.5 96 0.3 CALM 0 0 0 0 1004.5 1004.5 0.0
24/05:30am 8.5 7.2 7.7 95 0.4 SSW 4 9 2 5 1004.3 1004.3 0.0
24/05:00am 8.4 6.1 7.3 93 0.5 SW 9 11 5 6 1004.2 1004.2 0.0
24/04:30am 9.8 7.9 9.2 96 0.3 SSW 9 13 5 7 1004.4 1004.4 0.0
24/04:10am 10.2 7.7 9.7 97 0.3 SW 13 17 7 9 1004.3 1004.3 0.0
24/04:00am 10.2 8.5 9.7 97 0.3 SSW 9 13 5 7 1004.4 1004.4 0.0
24/03:34am 9.5 8.1 9.0 97 0.2 NNE 6 9 3 5 1004.2 1004.2 0.0
24/03:30am 9.9 9.0 9.4 97 0.2 NE 4 7 2 4 1004.2 1004.2 0.0
24/03:00am 9.4 9.1 8.8 96 0.3 CALM 0 0 0 0 1004.3 1004.3 0.0
24/02:30am 9.9 9.0 9.3 96 0.3 NE 4 7 2 4 1004.5 1004.5 0.0
24/02:00am 10.5 10.5 9.7 95 0.4 CALM 0 0 0 0 1004.8 1004.8 0.0
24/01:30am 10.7 9.5 9.6 93 0.6 SW 6 7 3 4 1005.1 1005.1 0.0
24/01:00am 11.1 9.4 9.9 92 0.6 WSW 9 13 5 7 1005.4 1005.4 0.0
24/12:30am 11.4 9.9 10.6 95 0.4 WSW 9 13 5 7 1005.5 1005.5 0.0
24/12:17am 11.6 9.8 11.0 96 0.3 WSW 11 15 6 8 1005.7 1005.7 0.0
24/12:00am 11.8 10.1 11.2 96 0.3 WSW 11 15 6 8 1005.8 1005.8 0.0
 
Date/Time
EDT
Temp
°C
App
Temp
°C
Dew
Point
°C
Rel
Hum
%
Delta-T
°C
Wind Press
QNH
hPa
Press
MSL
hPa
Rain since
9am
mm
Dir  Spd
km/h
Gust
km/h
Spd
kts
Gust
kts
23/11:34pm 11.8 10.5 11.2 96 0.3 WNW 9 13 5 7 1005.9 1005.9 0.0
23/11:30pm 11.9 10.6 11.3 96 0.3 WNW 9 13 5 7 1005.9 1005.9 0.0
23/11:00pm 11.9 10.6 11.3 96 0.3 WNW 9 11 5 6 1006.1 1006.1 0.0
23/10:30pm 12.1 10.8 11.3 95 0.4 WNW 9 13 5 7 1006.2 1006.2 0.0
23/10:00pm 12.1 10.9 11.5 96 0.3 W 9 11 5 6 1006.4 1006.4 0.0
23/09:30pm 12.2 10.9 11.4 95 0.4 WNW 9 13 5 7 1006.4 1006.4 0.0
23/09:00pm 12.2 11.5 11.4 95 0.4 WNW 6 9 3 5 1006.4 1006.4 0.0
23/08:47pm 12.3 12.1 11.7 96 0.3 W 4 7 2 4 1006.2 1006.2 0.0
23/08:35pm 12.3 11.7 11.7 96 0.3 W 6 9 3 5 1006.3 1006.3 0.0
23/08:30pm 12.3 11.5 11.7 96 0.3 W 7 9 4 5 1006.3 1006.3 0.0
23/08:28pm 12.3 11.5 11.7 96 0.3 W 7 9 4 5 1006.3 1006.3 0.0
23/08:11pm 12.3 11.6 11.5 95 0.4 WNW 6 9 3 5 1006.4 1006.4 0.0
23/08:00pm 12.4 11.5 11.5 94 0.5 WNW 7 11 4 6 1006.2 1006.2 0.0
23/07:30pm 12.6 11.3 11.3 92 0.7 W 9 13 5 7 1006.2 1006.2 0.0
23/07:00pm 12.8 10.7 11.2 90 0.8 W 13 15 7 8 1006.0 1006.0 0.0
23/06:55pm 12.9 10.8 11.1 89 0.9 W 13 15 7 8 1006.1 1006.1 0.0
23/06:30pm 13.2 10.9 11.6 90 0.9 WNW 15 19 8 10 1006.0 1006.0 0.0
23/06:00pm 13.1 11.8 12.5 96 0.3 W 11 17 6 9 1006.2 1006.2 0.0
23/05:36pm 13.3 11.4 11.7 90 0.9 NW 13 20 7 11 1006.2 1006.2 0.0
23/05:30pm 13.5 11.5 11.6 88 1.0 NW 13 19 7 10 1006.2 1006.2 0.0
23/05:00pm 13.8 11.6 10.8 82 1.6 WNW 13 19 7 10 1006.2 1006.2 0.0
23/04:30pm 13.8 11.7 11.0 83 1.5 NW 13 17 7 9 1006.1 1006.1 0.0
23/04:00pm 14.2 11.4 10.0 76 2.2 WNW 15 19 8 10 1006.3 1006.3 0.0
23/03:30pm 15.0 12.1 9.8 71 2.7 NW 15 20 8 11 1006.6 1006.6 0.0
23/03:00pm 15.4 13.7 9.7 69 3.0 NW 9 15 5 8 1007.0 1007.0 0.0
23/02:30pm 15.3 13.4 10.5 73 2.5 W 11 17 6 9 1007.4 1007.4 0.0
23/02:00pm 14.2 12.5 10.0 76 2.2 WNW 9 13 5 7 1008.0 1008.0 0.0
23/01:30pm 13.6 11.0 9.3 75 2.2 WNW 13 19 7 10 1008.4 1008.4 0.0

Other formats

Comma delimited format used in spreadsheet applications
http://www.bom.gov.au/fwo/IDT60801/IDT60801.94956.axf

JavaScript Object Notation format (JSON) in row-major order
http://www.bom.gov.au/fwo/IDT60801/IDT60801.94956.json

Data quality

Most of these data are generated automatically and are frequently updated. Quality checks on data are not normally performed. It is possible for incorrect values to appear. Refer to information at About Latest Weather Observations and please check the disclaimer before using these data.